Detall de PIREP

Printer-friendly versionPDF version

[2015/03/15 07:38:00]
Flight IATA:CT2101
Pilot Number:041
Company ICAO:CAT
Aircraft Type:F28/A
PAX:69
Departing Airport: LEAS
Destination Airport: LEVC
Alternate Airport:LEBL
Online: VATSIM
Route:XONDA R107 ZMR UL155 NVS UM871 ABOSI
Flight Level:FL330
No Slew and time accel
No pause
Crash detect
Detect pilot in Cockpit between each 30 and 45 minutes
07:38 Zero fuel Weight: 57507 Lbs, Fuel Weight: 8597 Lbs
07:38 VATSIM:LEAS 150700Z VRB01KT 9999 FEW030 BKN035 07/03 Q1023 TEMPO 3000 RA
07:38 VATSIM:LEVC 150700Z VRB02KT 9999 FEW050 05/M01 Q1019 NOSIG
07:38 VOICE CATALONIAN
07:42 Parking Brakes off
07:49 Take-off
07:49 Take off Weight: 65667 Lbs
07:49 Wind: 069º @ 001 Knots Heading: 105º
07:49 POS N43º 33´ 40´´ W006º 01´ 27´´
07:49 Gear Up: 176 Knots
07:49 Flaps:1 at 176 Knots
07:49 Flaps:0 at 188 Knots
08:04 Wind:306º@052 Knots Heading: 180º Ground Speed: 297 Knots Altitude 28231 ft
08:19 Wind:339º@033 Knots Heading: 130º Ground Speed: 451 Knots Altitude 30193 ft
08:26 TOC
08:26 Fuel Weight: 4759 Lb
08:33 TOD
08:33 Fuel Weight: 4330 Lb
08:34 Wind:275º@031 Knots Heading: 107º Ground Speed: 428 Knots Altitude 31384 ft
08:49 Wind:275º@013 Knots Heading: 107º Ground Speed: 290 Knots Altitude 6007 ft
08:53 Flaps:3 at 222 Knots
08:55 Flaps:4 at 167 Knots
08:55 Gear Down: 164 Knots
08:55 Flaps:5 at 152 Knots
08:57 Gear Up: 131 Knots
08:57 Flaps:0 at 131 Knots
08:57 Gear Down: 132 Knots
08:58 TouchDown:Rate -70 ft/min Speed: 180 Knots
08:58 VATSIM:LEVC 150830Z VRB02KT 9999 FEW050 10/M01 Q1019 NOSIG
08:58 Land
08:58 Wind:069º@001 Knots
08:58 Heading: 114º
08:58 Flight Duration: 01:09
08:58 Landing Weight: 60955 Lbs
08:58 POS N39º 29´ 13´´ W000º 28´ 31´´
09:01 Parking brakes on
09:01 Block to Block Duration: 01:19
09:01 Final Fuel: 3368 Lbls
09:01 Spent Fuel: 5229 Lbls
09:01 Flight Length: 403 NM
09:01 TOD Land Length: 120 NM

Exportar CSV

Powered by Drupal - Modified by Danger4k